Time;durP1;ratioP1;P1;durP2;ratioP2;P2;SDS_P1;SDS_P2;PMS_P1;PMS_P2;Temp;Humidity;BMP_temperature;BMP_pressure;BME280_temperature;BME280_humidity;BME280_pressure;Samples;Min_cycle;Max_cycle;Signal;HPM_P1;HPM_P2
2022/03/11 00:02:10;;;;;;;13.32;9.80;;;6.00;99.90;;;;;;4979769;28;20380;-72
2022/03/11 00:04:35;;;;;;;16.08;10.48;;;5.90;99.90;;;;;;5003922;28;20203;-72
2022/03/11 00:07:20;;;;;;;15.30;9.15;;;5.60;99.90;;;;;;4995463;28;20049;-74
2022/03/11 00:09:45;;;;;;;14.38;9.20;;;5.60;99.90;;;;;;5003562;28;20235;-75
2022/03/11 00:12:11;;;;;;;13.40;9.77;;;5.50;99.90;;;;;;4986679;28;20491;-75
2022/03/11 00:14:37;;;;;;;13.30;9.18;;;5.50;99.90;;;;;;5002971;28;20046;-75
2022/03/11 00:17:03;;;;;;;14.27;9.65;;;5.60;99.90;;;;;;5003298;28;20042;-74
2022/03/11 00:19:29;;;;;;;15.40;10.02;;;5.60;99.90;;;;;;5003859;28;20061;-74
2022/03/11 00:21:55;;;;;;;11.93;8.85;;;5.50;99.90;;;;;;5004378;28;20076;-74
2022/03/11 00:24:22;;;;;;;15.48;9.60;;;5.60;99.90;;;;;;5001742;28;20046;-74
2022/03/11 00:26:48;;;;;;;16.88;10.30;;;5.60;99.90;;;;;;4983920;28;20161;-74
2022/03/11 00:29:14;;;;;;;12.35;8.60;;;5.60;99.90;;;;;;4996482;28;20043;-74
2022/03/11 00:31:39;;;;;;;16.67;9.68;;;5.50;99.90;;;;;;5003804;28;20089;-75
2022/03/11 00:34:05;;;;;;;14.45;9.05;;;5.40;99.90;;;;;;4995420;28;20051;-73
2022/03/11 00:36:32;;;;;;;15.75;8.95;;;5.40;99.90;;;;;;5006306;28;20367;-73
2022/03/11 00:38:58;;;;;;;13.98;8.88;;;5.30;99.90;;;;;;5007960;28;20080;-73
2022/03/11 00:41:23;;;;;;;14.15;9.02;;;5.30;99.90;;;;;;5004674;28;20034;-75
2022/03/11 00:43:50;;;;;;;15.27;9.35;;;5.30;99.90;;;;;;5006726;28;20053;-73
2022/03/11 00:46:16;;;;;;;14.88;8.80;;;5.30;99.90;;;;;;5005178;28;20537;-73
2022/03/11 00:48:41;;;;;;;14.95;8.68;;;5.20;99.90;;;;;;4996443;28;20050;-73
2022/03/11 00:51:07;;;;;;;12.38;8.98;;;5.30;99.90;;;;;;5006735;28;20078;-72
2022/03/11 00:53:33;;;;;;;13.25;8.38;;;5.30;99.90;;;;;;5000713;28;20060;-72
2022/03/11 00:55:59;;;;;;;17.40;9.13;;;5.40;99.90;;;;;;5007461;28;20125;-72
2022/03/11 00:58:24;;;;;;;15.13;9.10;;;5.30;99.90;;;;;;5005277;28;20137;-72
2022/03/11 01:00:50;;;;;;;14.23;8.98;;;5.40;99.90;;;;;;4977126;28;20042;-72
2022/03/11 01:03:16;;;;;;;14.23;8.68;;;5.40;99.90;;;;;;4994120;28;20379;-72
2022/03/11 01:05:42;;;;;;;13.77;9.23;;;5.40;99.90;;;;;;4997225;28;20050;-72
2022/03/11 01:08:07;;;;;;;12.73;9.70;;;5.40;99.90;;;;;;5006166;28;20048;-72
2022/03/11 01:10:33;;;;;;;13.25;8.75;;;5.40;99.90;;;;;;4990134;28;20038;-73
2022/03/11 01:12:59;;;;;;;13.63;9.38;;;5.40;99.90;;;;;;5006932;28;20129;-73
2022/03/11 01:15:24;;;;;;;14.90;9.50;;;5.40;99.90;;;;;;5006290;28;20102;-73
2022/03/11 01:17:50;;;;;;;14.30;9.60;;;5.50;99.90;;;;;;5005829;28;20038;-73
2022/03/11 01:20:16;;;;;;;15.02;8.85;;;5.50;99.90;;;;;;4994450;28;20069;-73
2022/03/11 01:22:42;;;;;;;14.90;9.45;;;5.60;99.90;;;;;;4971239;28;20069;-73
2022/03/11 01:25:08;;;;;;;14.57;9.75;;;5.60;99.90;;;;;;4992156;28;20043;-73
2022/03/11 01:27:36;;;;;;;16.23;9.70;;;5.60;99.90;;;;;;5004835;28;20061;-74
2022/03/11 01:30:05;;;;;;;16.60;9.85;;;5.60;99.90;;;;;;5006221;28;20078;-74
2022/03/11 01:32:31;;;;;;;16.50;9.50;;;5.50;99.90;;;;;;5005688;28;20054;-74
2022/03/11 01:34:56;;;;;;;17.30;10.57;;;5.50;99.90;;;;;;5003173;28;20061;-74
2022/03/11 01:37:22;;;;;;;14.43;10.55;;;5.50;99.90;;;;;;5005936;28;20050;-74
2022/03/11 01:39:48;;;;;;;21.27;11.82;;;5.50;99.90;;;;;;5000467;28;20046;-74
2022/03/11 01:42:13;;;;;;;16.13;10.23;;;5.50;99.90;;;;;;4987537;28;20040;-74
2022/03/11 01:44:39;;;;;;;17.67;10.90;;;5.50;99.90;;;;;;5005654;28;20057;-75
2022/03/11 01:47:07;;;;;;;17.80;10.57;;;5.40;99.90;;;;;;4984184;28;20407;-74
2022/03/11 01:49:33;;;;;;;16.15;10.52;;;5.40;99.90;;;;;;5006375;28;20545;-75
2022/03/11 01:51:59;;;;;;;18.55;11.48;;;5.40;99.90;;;;;;5003225;28;20042;-75
2022/03/11 01:54:25;;;;;;;18.85;12.25;;;5.30;99.90;;;;;;4996653;28;20065;-75
2022/03/11 01:56:51;;;;;;;20.63;12.10;;;5.40;99.90;;;;;;5005800;28;20046;-75
2022/03/11 01:59:17;;;;;;;19.48;11.35;;;5.40;99.90;;;;;;4996208;28;20130;-74
2022/03/11 02:01:43;;;;;;;21.80;12.43;;;5.40;99.90;;;;;;4979422;28;20404;-75
2022/03/11 02:04:08;;;;;;;18.48;13.02;;;5.40;99.90;;;;;;4995830;28;20050;-75
2022/03/11 02:06:35;;;;;;;23.25;14.25;;;5.30;99.90;;;;;;5000529;28;20043;-75
2022/03/11 02:09:01;;;;;;;16.75;12.30;;;5.20;99.90;;;;;;5005155;28;20050;-75
2022/03/11 02:11:27;;;;;;;21.38;13.00;;;5.20;99.90;;;;;;5004652;28;20051;-75
2022/03/11 02:13:58;;;;;;;21.00;12.43;;;5.20;99.90;;;;;;5005771;28;20388;-75
2022/03/11 02:16:32;;;;;;;22.50;13.18;;;5.20;99.90;;;;;;5005543;28;20125;-75
2022/03/11 02:18:59;;;;;;;21.95;14.55;;;5.20;99.90;;;;;;5005072;28;20062;-75
2022/03/11 02:21:29;;;;;;;21.33;14.35;;;5.20;99.90;;;;;;4988622;28;20068;-75
2022/03/11 02:23:59;;;;;;;19.77;14.32;;;5.20;99.90;;;;;;5006022;28;20078;-75
2022/03/11 02:26:28;;;;;;;21.52;13.20;;;5.30;99.90;;;;;;4990568;28;20046;-75
2022/03/11 02:28:57;;;;;;;23.27;14.32;;;5.30;99.90;;;;;;5006424;28;20039;-75
2022/03/11 02:31:26;;;;;;;22.33;14.90;;;5.20;99.90;;;;;;5004831;28;20078;-74
2022/03/11 02:33:52;;;;;;;21.60;14.70;;;5.20;99.90;;;;;;4997102;28;20055;-74
2022/03/11 02:36:21;;;;;;;23.67;14.80;;;5.20;99.90;;;;;;5002540;28;20051;-74
2022/03/11 02:38:46;;;;;;;22.20;14.55;;;5.30;99.90;;;;;;5005641;28;20042;-74
2022/03/11 02:41:12;;;;;;;23.35;16.08;;;5.20;99.90;;;;;;4993501;28;20062;-74
2022/03/11 02:43:38;;;;;;;28.95;16.50;;;5.20;99.90;;;;;;5006191;28;20098;-74
2022/03/11 02:46:04;;;;;;;25.63;15.52;;;5.20;99.90;;;;;;5005277;28;20049;-74
2022/03/11 02:48:30;;;;;;;24.70;14.73;;;5.20;99.90;;;;;;4996194;28;20541;-74
2022/03/11 02:50:56;;;;;;;23.15;16.00;;;5.20;99.90;;;;;;5004064;28;20093;-74
2022/03/11 02:53:22;;;;;;;27.58;15.20;;;5.10;99.90;;;;;;5000796;28;20078;-75
2022/03/11 02:55:48;;;;;;;25.75;15.68;;;5.10;99.90;;;;;;5005214;28;20082;-75
2022/03/11 02:58:14;;;;;;;23.35;16.10;;;5.10;99.90;;;;;;5004028;28;20069;-75
2022/03/11 03:00:39;;;;;;;25.63;17.00;;;5.00;99.90;;;;;;4973984;28;20043;-75
2022/03/11 03:03:05;;;;;;;25.08;15.85;;;5.00;99.90;;;;;;4995031;28;20054;-74
2022/03/11 03:05:31;;;;;;;24.67;15.80;;;5.00;99.90;;;;;;5005038;28;20046;-74
2022/03/11 03:07:57;;;;;;;22.80;14.85;;;5.10;99.90;;;;;;4995681;28;20046;-74
2022/03/11 03:10:23;;;;;;;26.63;16.92;;;5.00;99.90;;;;;;5005304;28;20042;-74
2022/03/11 03:12:49;;;;;;;26.48;16.63;;;5.00;99.90;;;;;;5004519;28;20045;-74
2022/03/11 03:15:15;;;;;;;26.75;17.58;;;5.10;99.90;;;;;;4987680;28;20053;-74
2022/03/11 03:17:40;;;;;;;27.95;16.65;;;5.00;99.90;;;;;;5003840;28;20046;-74
2022/03/11 03:20:08;;;;;;;27.25;17.00;;;5.00;99.90;;;;;;5003831;28;20057;-74
2022/03/11 03:22:34;;;;;;;27.02;17.17;;;5.00;99.90;;;;;;5003941;28;20050;-74
2022/03/11 03:25:00;;;;;;;25.25;17.70;;;5.00;99.90;;;;;;4996935;28;20099;-74
2022/03/11 03:27:26;;;;;;;25.27;17.63;;;4.90;99.90;;;;;;4978232;28;20598;-74
2022/03/11 03:29:52;;;;;;;26.98;17.65;;;4.90;99.90;;;;;;5003780;28;20042;-75
2022/03/11 03:32:17;;;;;;;28.38;18.25;;;4.90;99.90;;;;;;5003150;28;20104;-74
2022/03/11 03:34:43;;;;;;;28.98;17.20;;;4.90;99.90;;;;;;5003340;28;20545;-74
2022/03/11 03:37:10;;;;;;;27.73;17.92;;;4.90;99.90;;;;;;5003900;28;20050;-75
2022/03/11 03:39:38;;;;;;;29.92;17.60;;;4.80;99.90;;;;;;5000692;28;20054;-76
2022/03/11 03:42:04;;;;;;;30.15;18.77;;;4.80;99.90;;;;;;5002298;28;20046;-75
2022/03/11 03:44:30;;;;;;;29.23;18.95;;;4.80;99.90;;;;;;5003128;28;20177;-74
2022/03/11 03:46:56;;;;;;;30.38;19.83;;;4.80;99.90;;;;;;4985229;28;20062;-74
2022/03/11 03:49:22;;;;;;;28.70;18.10;;;4.70;99.90;;;;;;5003786;28;20114;-74
2022/03/11 03:51:48;;;;;;;30.60;19.35;;;4.70;99.90;;;;;;5002074;28;20046;-74
2022/03/11 03:54:15;;;;;;;29.90;18.42;;;4.60;99.90;;;;;;4994905;28;20490;-74
2022/03/11 03:56:42;;;;;;;28.95;19.00;;;4.50;99.90;;;;;;5003214;28;20053;-73
2022/03/11 03:59:10;;;;;;;26.50;18.63;;;4.60;99.90;;;;;;4996177;28;20042;-74
2022/03/11 04:01:37;;;;;;;31.55;19.65;;;4.60;99.90;;;;;;4995777;28;20043;-74
2022/03/11 04:04:04;;;;;;;28.27;18.10;;;4.60;99.90;;;;;;4995866;28;20050;-75
2022/03/11 04:06:31;;;;;;;29.15;18.85;;;4.40;99.90;;;;;;5001310;28;20097;-75
2022/03/11 04:08:58;;;;;;;29.75;19.48;;;4.40;99.90;;;;;;5005640;28;20049;-75
2022/03/11 04:11:24;;;;;;;29.92;19.95;;;4.40;99.90;;;;;;5009182;28;20132;-76
2022/03/11 04:13:53;;;;;;;32.92;20.35;;;4.30;99.90;;;;;;5008153;28;20046;-75
2022/03/11 04:16:19;;;;;;;31.90;20.23;;;4.30;99.90;;;;;;5007258;28;20050;-74
2022/03/11 04:18:46;;;;;;;31.02;20.17;;;4.30;99.90;;;;;;5008653;28;20379;-74
2022/03/11 04:21:13;;;;;;;31.67;20.70;;;4.20;99.90;;;;;;5006901;28;20050;-75
2022/03/11 04:23:40;;;;;;;31.58;19.42;;;4.20;99.90;;;;;;5006904;28;20058;-75
2022/03/11 04:26:06;;;;;;;31.92;19.25;;;4.20;99.90;;;;;;4994884;28;20105;-75
2022/03/11 04:28:32;;;;;;;32.30;20.10;;;4.30;99.90;;;;;;5007859;28;20054;-74
2022/03/11 04:30:58;;;;;;;30.33;19.77;;;4.30;99.90;;;;;;5007987;28;20053;-72
2022/03/11 04:33:25;;;;;;;32.03;19.42;;;4.30;99.90;;;;;;5004358;28;20065;-71
2022/03/11 04:35:51;;;;;;;32.63;20.15;;;4.30;99.90;;;;;;5004651;28;20062;-71
2022/03/11 04:38:17;;;;;;;29.33;18.70;;;4.20;99.90;;;;;;5008335;28;20034;-71
2022/03/11 04:40:42;;;;;;;31.48;20.52;;;4.20;99.90;;;;;;4998078;28;20055;-71
2022/03/11 04:43:08;;;;;;;32.38;20.38;;;4.20;99.90;;;;;;5007095;28;20058;-71
2022/03/11 04:45:34;;;;;;;27.70;19.27;;;4.20;99.90;;;;;;5007685;28;20070;-71
2022/03/11 04:48:00;;;;;;;32.35;19.77;;;4.20;99.90;;;;;;4983559;28;20054;-71
2022/03/11 04:50:26;;;;;;;31.65;20.75;;;4.20;99.90;;;;;;5008356;28;20505;-71
2022/03/11 04:52:52;;;;;;;29.20;18.30;;;4.10;99.90;;;;;;5005053;28;20089;-71
2022/03/11 04:55:19;;;;;;;33.38;19.55;;;4.20;99.90;;;;;;5007266;28;20487;-71
2022/03/11 04:57:45;;;;;;;33.42;20.63;;;4.00;99.90;;;;;;5006841;28;20058;-72
2022/03/11 05:00:11;;;;;;;29.55;20.20;;;4.00;99.90;;;;;;5003670;28;20050;-72
2022/03/11 05:02:40;;;;;;;31.30;19.92;;;3.90;99.90;;;;;;4993700;28;20051;-72
2022/03/11 05:05:07;;;;;;;30.83;20.15;;;3.80;99.90;;;;;;5001716;28;20202;-72
2022/03/11 05:07:34;;;;;;;31.15;19.80;;;3.90;99.90;;;;;;4998381;28;20632;-72
2022/03/11 05:10:00;;;;;;;31.98;19.48;;;3.90;99.90;;;;;;5007380;28;20143;-72
2022/03/11 05:12:26;;;;;;;30.25;19.77;;;3.90;99.90;;;;;;5006766;28;20046;-72
2022/03/11 05:14:52;;;;;;;31.40;21.40;;;3.80;99.90;;;;;;5005593;28;20054;-72
2022/03/11 05:17:19;;;;;;;32.58;21.10;;;3.80;99.90;;;;;;5006870;28;20042;-72
2022/03/11 05:19:45;;;;;;;31.35;20.30;;;3.70;99.90;;;;;;5005961;28;20054;-72
2022/03/11 05:22:11;;;;;;;27.70;18.25;;;3.70;99.90;;;;;;5005758;28;20106;-75
2022/03/11 05:24:38;;;;;;;29.00;19.38;;;3.70;99.90;;;;;;4986154;28;20047;-75
2022/03/11 05:27:07;;;;;;;30.17;19.92;;;3.60;99.90;;;;;;5006258;28;20070;-73
2022/03/11 05:29:34;;;;;;;31.50;18.83;;;3.70;99.90;;;;;;5005860;28;20053;-74
2022/03/11 05:32:01;;;;;;;33.08;19.77;;;3.60;99.90;;;;;;4981294;28;20053;-74
2022/03/11 05:34:26;;;;;;;29.88;19.33;;;3.70;99.90;;;;;;4994752;28;20059;-74
2022/03/11 05:36:52;;;;;;;33.50;20.27;;;3.70;99.90;;;;;;5005298;28;20053;-73
2022/03/11 05:39:18;;;;;;;31.05;20.13;;;3.70;99.90;;;;;;5006214;28;20042;-73
2022/03/11 05:41:46;;;;;;;31.45;19.80;;;3.80;99.90;;;;;;5005535;28;20049;-73
2022/03/11 05:44:12;;;;;;;30.50;19.42;;;3.70;99.90;;;;;;5005789;28;20050;-73
2022/03/11 05:46:38;;;;;;;29.85;20.55;;;3.50;99.90;;;;;;5001051;28;20049;-73
2022/03/11 05:49:04;;;;;;;34.60;19.85;;;3.50;99.90;;;;;;4998377;28;20081;-73
2022/03/11 05:51:29;;;;;;;33.25;20.38;;;3.50;99.90;;;;;;5001073;28;20058;-73
2022/03/11 05:53:55;;;;;;;34.75;20.38;;;3.50;99.90;;;;;;4998298;28;20064;-73
2022/03/11 05:56:21;;;;;;;28.13;18.67;;;3.50;99.90;;;;;;5007142;28;20058;-73
2022/03/11 05:58:49;;;;;;;29.33;20.60;;;3.40;99.90;;;;;;5000256;28;20046;-73
2022/03/11 06:01:16;;;;;;;30.80;19.40;;;3.50;99.90;;;;;;5000066;28;20072;-73
2022/03/11 06:03:42;;;;;;;30.05;19.20;;;3.60;99.90;;;;;;4985500;28;20034;-73
2022/03/11 06:06:07;;;;;;;30.85;19.40;;;3.60;99.90;;;;;;5001223;28;20089;-73
2022/03/11 06:08:33;;;;;;;28.80;18.52;;;3.60;99.90;;;;;;5003837;28;20078;-73
2022/03/11 06:10:59;;;;;;;31.40;20.05;;;3.50;99.90;;;;;;4965555;28;20121;-73
2022/03/11 06:13:24;;;;;;;30.00;18.55;;;3.50;99.90;;;;;;5002325;28;20194;-76
2022/03/11 06:15:50;;;;;;;30.70;20.42;;;3.50;99.90;;;;;;5004133;28;20052;-74
2022/03/11 06:18:18;;;;;;;30.85;18.60;;;3.50;99.90;;;;;;4970096;28;20345;-79
2022/03/11 06:20:44;;;;;;;30.25;19.48;;;3.50;99.90;;;;;;4969267;28;20058;-78
2022/03/11 06:23:10;;;;;;;31.70;19.48;;;3.60;99.90;;;;;;4978504;28;20109;-77
2022/03/11 06:25:36;;;;;;;30.90;19.77;;;3.50;99.90;;;;;;4960840;28;20069;-76
2022/03/11 06:28:02;;;;;;;29.58;18.98;;;3.50;99.90;;;;;;4983418;28;20358;-77
2022/03/11 06:30:28;;;;;;;32.38;19.52;;;3.50;99.90;;;;;;4992970;28;20453;-77
2022/03/11 06:32:54;;;;;;;32.83;20.35;;;3.60;99.90;;;;;;4981171;28;20035;-76
2022/03/11 06:35:19;;;;;;;29.50;20.33;;;3.60;99.90;;;;;;4971387;28;20053;-79
2022/03/11 06:37:50;;;;;;;30.77;19.95;;;3.60;99.90;;;;;;4997799;28;20056;-80
2022/03/11 06:40:17;;;;;;;34.03;20.67;;;3.60;99.90;;;;;;4991029;28;20114;-76
2022/03/11 06:42:49;;;;;;;30.98;20.88;;;3.50;99.90;;;;;;4999930;28;20046;-78
2022/03/11 06:45:16;;;;;;;32.63;19.80;;;3.50;99.90;;;;;;4992138;28;20576;-76
2022/03/11 06:47:42;;;;;;;31.23;20.08;;;3.50;99.90;;;;;;4993473;28;20080;-73
2022/03/11 06:50:09;;;;;;;41.35;21.00;;;3.50;99.90;;;;;;4988582;28;20037;-73
2022/03/11 06:52:35;;;;;;;29.85;18.77;;;3.50;99.90;;;;;;4977232;28;20045;-74
2022/03/11 06:55:02;;;;;;;31.33;19.17;;;3.50;99.90;;;;;;4987511;28;20053;-73
2022/03/11 06:57:28;;;;;;;30.25;20.08;;;3.50;99.90;;;;;;4979698;28;20403;-73
2022/03/11 06:59:54;;;;;;;30.40;19.52;;;3.60;99.90;;;;;;4985328;28;20039;-75
2022/03/11 07:02:20;;;;;;;28.95;18.02;;;3.60;99.90;;;;;;4996066;28;20133;-74
2022/03/11 07:04:45;;;;;;;29.98;19.20;;;3.70;99.90;;;;;;4994120;28;20038;-74
2022/03/11 07:07:11;;;;;;;30.58;18.58;;;3.70;99.90;;;;;;4995421;28;20169;-74
2022/03/11 07:09:37;;;;;;;29.63;17.67;;;3.70;99.90;;;;;;4995966;28;20061;-76
2022/03/11 07:12:03;;;;;;;32.13;20.35;;;3.70;99.90;;;;;;4982471;28;20073;-78
2022/03/11 07:14:30;;;;;;;31.27;18.40;;;3.80;99.90;;;;;;4997142;28;20057;-77
2022/03/11 07:16:57;;;;;;;29.60;18.90;;;3.80;99.90;;;;;;5006351;28;20145;-72
2022/03/11 07:19:29;;;;;;;35.50;18.90;;;3.80;99.90;;;;;;4997835;28;20050;-72
2022/03/11 07:21:56;;;;;;;31.20;19.02;;;3.90;99.90;;;;;;4993020;28;20053;-71
2022/03/11 07:24:21;;;;;;;30.73;18.27;;;3.90;99.90;;;;;;4980857;28;20057;-71
2022/03/11 07:26:47;;;;;;;30.85;19.02;;;4.00;99.90;;;;;;4989925;28;20058;-71
2022/03/11 07:29:13;;;;;;;32.78;19.98;;;4.10;99.90;;;;;;4986287;28;20046;-71
2022/03/11 07:31:39;;;;;;;31.70;18.48;;;4.10;99.90;;;;;;4985684;28;20077;-71
2022/03/11 07:34:04;;;;;;;28.35;18.90;;;4.10;99.90;;;;;;4972166;28;20077;-71
2022/03/11 07:36:34;;;;;;;30.58;18.10;;;4.10;99.90;;;;;;4974762;28;20058;-71
2022/03/11 07:39:10;;;;;;;30.50;18.83;;;4.20;99.90;;;;;;4998975;28;20057;-70
2022/03/11 07:41:36;;;;;;;34.53;19.60;;;4.30;99.90;;;;;;4974420;28;20383;-68
2022/03/11 07:44:03;;;;;;;30.20;19.52;;;4.30;99.90;;;;;;4987651;28;20046;-68
2022/03/11 07:46:30;;;;;;;30.40;19.10;;;4.30;99.90;;;;;;4986951;28;20099;-70
2022/03/11 07:48:57;;;;;;;32.38;19.80;;;4.50;99.90;;;;;;4989686;28;20171;-70
2022/03/11 07:51:25;;;;;;;31.20;19.17;;;4.60;99.90;;;;;;4976754;28;20046;-70
2022/03/11 07:53:50;;;;;;;31.00;19.23;;;4.60;99.90;;;;;;4987940;28;20438;-70
2022/03/11 07:56:17;;;;;;;31.05;19.45;;;4.70;99.90;;;;;;4991010;28;20088;-69
2022/03/11 07:58:43;;;;;;;30.27;19.67;;;4.80;99.90;;;;;;4993931;28;20163;-71
2022/03/11 08:01:09;;;;;;;30.55;19.17;;;4.80;99.90;;;;;;4996093;28;20129;-70
2022/03/11 08:03:39;;;;;;;28.02;19.27;;;4.90;99.90;;;;;;4991875;28;20051;-70
2022/03/11 08:06:06;;;;;;;29.55;18.52;;;4.90;99.90;;;;;;4988238;28;20061;-71
2022/03/11 08:08:32;;;;;;;30.33;18.95;;;5.10;99.90;;;;;;4999542;28;20487;-70
2022/03/11 08:10:58;;;;;;;28.85;17.13;;;5.10;99.90;;;;;;4978712;28;20046;-71
2022/03/11 08:13:24;;;;;;;28.92;17.65;;;5.10;99.90;;;;;;4993249;28;20050;-71
2022/03/11 08:15:50;;;;;;;29.23;20.15;;;5.20;99.90;;;;;;4992215;28;20247;-70
2022/03/11 08:18:16;;;;;;;31.85;19.90;;;5.20;99.90;;;;;;4988490;28;20050;-71
2022/03/11 08:20:42;;;;;;;31.45;20.30;;;5.40;99.90;;;;;;4984889;28;20058;-71
2022/03/11 08:23:08;;;;;;;33.45;19.98;;;5.30;99.90;;;;;;4899596;28;20049;-73
2022/03/11 08:25:35;;;;;;;29.63;18.63;;;5.40;99.90;;;;;;4990467;28;20497;-69
2022/03/11 08:28:01;;;;;;;29.23;19.02;;;5.60;99.90;;;;;;4996328;28;20089;-68
2022/03/11 08:30:27;;;;;;;31.08;19.17;;;5.70;99.90;;;;;;4991078;28;20062;-69
2022/03/11 08:32:53;;;;;;;29.20;19.38;;;5.70;99.90;;;;;;4978701;28;20046;-65
2022/03/11 08:35:19;;;;;;;27.75;17.20;;;5.70;99.90;;;;;;4983788;28;20082;-68
2022/03/11 08:37:46;;;;;;;30.33;19.05;;;5.80;99.90;;;;;;4972960;28;20117;-68
2022/03/11 08:40:13;;;;;;;32.28;20.00;;;6.00;99.90;;;;;;4979151;28;20042;-68
2022/03/11 08:42:40;;;;;;;28.67;17.63;;;6.00;99.90;;;;;;4983737;28;20049;-69
2022/03/11 08:45:08;;;;;;;33.58;19.33;;;6.00;99.90;;;;;;4973606;28;20055;-69
2022/03/11 08:47:35;;;;;;;31.98;18.83;;;6.10;99.90;;;;;;4989420;28;20066;-69
2022/03/11 08:50:02;;;;;;;30.83;18.73;;;6.00;99.90;;;;;;4982362;28;20086;-69
2022/03/11 08:52:29;;;;;;;29.73;18.30;;;6.20;99.90;;;;;;4972406;28;20085;-68
2022/03/11 08:54:55;;;;;;;28.60;19.02;;;6.30;99.90;;;;;;4989423;28;20054;-67
2022/03/11 08:57:21;;;;;;;27.35;18.10;;;6.40;99.90;;;;;;4978212;28;20141;-69
2022/03/11 08:59:47;;;;;;;30.73;19.85;;;6.40;99.90;;;;;;4998165;28;20058;-70
2022/03/11 09:02:15;;;;;;;27.88;16.92;;;6.50;99.90;;;;;;4997583;28;20053;-67
2022/03/11 09:04:42;;;;;;;29.40;18.17;;;6.70;99.90;;;;;;4998888;28;20069;-68
2022/03/11 09:07:08;;;;;;;28.15;17.95;;;6.70;99.90;;;;;;4989868;28;20062;-69
2022/03/11 09:09:36;;;;;;;32.45;19.27;;;6.70;99.90;;;;;;5001695;28;20073;-71
2022/03/11 09:12:03;;;;;;;34.20;20.13;;;6.90;99.90;;;;;;4985752;28;20055;-72
2022/03/11 09:14:30;;;;;;;30.38;19.35;;;6.90;99.90;;;;;;4988450;28;20077;-72
2022/03/11 09:16:56;;;;;;;29.63;18.70;;;7.10;99.90;;;;;;5000945;28;20046;-72
2022/03/11 09:19:22;;;;;;;35.50;18.85;;;7.10;99.90;;;;;;4973189;28;20067;-69
2022/03/11 09:21:48;;;;;;;29.80;17.88;;;7.30;99.90;;;;;;4999013;28;20096;-70
2022/03/11 09:24:13;;;;;;;30.58;19.80;;;7.40;99.90;;;;;;4998649;28;20046;-69
2022/03/11 09:26:39;;;;;;;30.77;19.95;;;7.50;99.90;;;;;;5000186;28;20046;-68
2022/03/11 09:29:06;;;;;;;27.58;19.63;;;7.70;99.90;;;;;;5004903;28;20068;-68
2022/03/11 09:31:32;;;;;;;31.30;20.27;;;7.60;99.90;;;;;;5016129;28;20527;-68
2022/03/11 09:33:58;;;;;;;30.17;19.85;;;7.70;99.90;;;;;;4986060;28;20062;-68
2022/03/11 09:36:25;;;;;;;28.33;18.88;;;7.70;99.90;;;;;;4999652;28;20046;-69
2022/03/11 09:38:51;;;;;;;29.80;19.20;;;7.70;99.90;;;;;;5005710;28;20049;-69
2022/03/11 09:41:19;;;;;;;32.38;19.58;;;7.70;99.90;;;;;;4988990;28;20259;-69
2022/03/11 09:43:45;;;;;;;27.23;17.52;;;7.70;99.90;;;;;;4993050;28;20045;-70
2022/03/11 09:46:11;;;;;;;28.40;17.77;;;7.90;99.90;;;;;;4997216;28;20051;-68
2022/03/11 09:48:37;;;;;;;29.23;19.50;;;8.00;99.90;;;;;;4989192;28;20061;-68
2022/03/11 09:51:03;;;;;;;28.90;19.45;;;8.20;99.90;;;;;;5001395;28;20058;-70
2022/03/11 09:53:29;;;;;;;29.98;18.73;;;8.40;99.90;;;;;;4978864;28;20382;-71
2022/03/11 09:55:55;;;;;;;31.20;19.48;;;8.40;99.90;;;;;;4992087;28;20068;-71
2022/03/11 09:58:21;;;;;;;27.05;17.55;;;8.60;99.90;;;;;;4991938;28;20062;-71
2022/03/11 10:00:49;;;;;;;28.52;18.88;;;8.60;99.90;;;;;;5001205;28;20137;-71
2022/03/11 10:03:15;;;;;;;27.80;17.88;;;8.60;99.90;;;;;;4987490;28;20073;-70
2022/03/11 10:05:59;;;;;;;25.98;18.17;;;8.70;99.90;;;;;;5009636;28;20105;-70
2022/03/11 10:08:35;;;;;;;25.15;16.20;;;8.80;99.90;;;;;;4984784;28;20050;-71
2022/03/11 10:11:26;;;;;;;27.05;19.13;;;9.10;99.90;;;;;;5005889;28;20108;-70
2022/03/11 10:14:06;;;;;;;29.10;18.58;;;9.10;99.90;;;;;;4984950;28;20051;-68
2022/03/11 10:16:32;;;;;;;25.70;15.07;;;9.00;99.90;;;;;;5004812;28;20050;-68
2022/03/11 10:19:01;;;;;;;33.30;18.55;;;9.10;97.60;;;;;;4993277;28;20049;-69
2022/03/11 10:21:34;;;;;;;27.02;17.00;;;9.50;93.60;;;;;;4995066;28;20157;-68
2022/03/11 10:24:01;;;;;;;23.90;16.52;;;9.60;90.70;;;;;;4979479;28;20050;-68
2022/03/11 10:26:41;;;;;;;24.77;15.50;;;9.60;91.10;;;;;;5001091;28;20050;-68
2022/03/11 10:29:13;;;;;;;26.95;17.75;;;9.60;90.90;;;;;;5005162;28;20077;-68
2022/03/11 10:31:42;;;;;;;28.58;17.48;;;9.70;87.30;;;;;;4997513;28;20046;-68
2022/03/11 10:34:18;;;;;;;30.85;18.15;;;9.60;87.70;;;;;;4995743;28;20184;-68
2022/03/11 10:36:58;;;;;;;28.70;16.92;;;9.80;85.80;;;;;;5000678;28;20502;-68
2022/03/11 10:39:28;;;;;;;;;;;9.60;90.40;;;;;;5005683;28;20054;-68
2022/03/11 10:41:56;;;;;;;27.13;16.25;;;9.70;86.90;;;;;;4976293;28;19922;-68
2022/03/11 10:44:26;;;;;;;24.15;16.40;;;9.80;85.80;;;;;;5005317;28;20042;-68
2022/03/11 10:46:55;;;;;;;;;;;9.90;86.00;;;;;;4996535;28;20045;-68
2022/03/11 10:49:32;;;;;;;23.33;15.53;;;9.90;84.00;;;;;;5000893;28;19983;-68
2022/03/11 10:51:59;;;;;;;26.70;18.15;;;10.00;82.60;;;;;;4998883;28;20086;-68
2022/03/11 10:54:27;;;;;;;26.00;17.25;;;10.00;84.70;;;;;;4988774;28;20060;-68
2022/03/11 10:56:54;;;;;;;23.38;16.52;;;9.90;84.60;;;;;;4999513;28;20045;-68
2022/03/11 10:59:22;;;;;;;24.00;15.75;;;9.90;83.00;;;;;;4981686;28;20046;-68
2022/03/11 11:01:51;;;;;;;29.95;18.02;;;9.90;81.50;;;;;;4993382;28;20043;-69
2022/03/11 11:04:18;;;;;;;24.27;16.30;;;9.90;83.00;;;;;;4987919;28;20056;-69
2022/03/11 11:06:44;;;;;;;27.15;16.30;;;10.10;81.40;;;;;;4989481;28;20102;-69
2022/03/11 11:09:12;;;;;;;27.25;16.25;;;10.10;81.40;;;;;;4987572;28;20087;-69
2022/03/11 11:11:39;;;;;;;24.95;15.73;;;10.10;80.10;;;;;;4987570;28;20054;-68
2022/03/11 11:14:08;;;;;;;22.70;15.73;;;10.10;80.20;;;;;;4991066;28;20050;-68
2022/03/11 11:16:40;;;;;;;25.13;16.88;;;10.20;78.20;;;;;;4998692;28;20054;-67
2022/03/11 11:19:17;;;;;;;25.23;16.10;;;10.30;78.10;;;;;;4988757;28;20209;-66
2022/03/11 11:21:48;;;;;;;24.70;15.38;;;10.40;78.10;;;;;;4996978;28;20094;-66
2022/03/11 11:24:24;;;;;;;24.65;15.00;;;10.60;76.70;;;;;;4990272;28;20050;-66
2022/03/11 11:26:55;;;;;;;23.30;14.95;;;10.60;74.20;;;;;;4997869;28;20169;-65
2022/03/11 11:29:36;;;;;;;24.77;17.27;;;10.70;73.00;;;;;;4996439;28;20755;-65
2022/03/11 11:32:05;;;;;;;22.50;14.57;;;10.60;74.20;;;;;;4993401;28;20516;-65
2022/03/11 11:34:37;;;;;;;23.63;16.38;;;10.80;72.20;;;;;;4990200;28;20412;-65
2022/03/11 11:37:07;;;;;;;22.90;15.43;;;10.60;74.30;;;;;;4996908;28;20339;-65
2022/03/11 11:39:40;;;;;;;;;;;10.60;75.70;;;;;;4989975;28;20108;-66
2022/03/11 11:42:11;;;;;;;21.20;14.25;;;10.70;74.60;;;;;;4995521;28;19961;-66
2022/03/11 11:44:39;;;;;;;22.27;15.70;;;10.90;70.60;;;;;;4987689;28;20065;-66
2022/03/11 11:47:22;;;;;;;23.35;15.35;;;11.00;71.30;;;;;;4997565;28;20231;-66
2022/03/11 11:49:51;;;;;;;20.58;14.93;;;11.10;71.10;;;;;;4987320;28;20084;-66
2022/03/11 11:52:36;;;;;;;22.77;15.57;;;11.20;68.10;;;;;;4996218;28;20060;-66
2022/03/11 11:55:19;;;;;;;22.92;15.38;;;11.30;68.00;;;;;;4980434;28;20051;-65
2022/03/11 11:57:46;;;;;;;22.02;14.75;;;11.40;67.60;;;;;;4985753;28;20078;-66
2022/03/11 12:00:44;;;;;;;22.23;15.63;;;11.60;65.90;;;;;;4983515;28;20035;-67
2022/03/11 12:03:12;;;;;;;22.90;15.70;;;11.60;64.60;;;;;;4983728;28;20054;-66
2022/03/11 12:05:41;;;;;;;24.40;16.55;;;11.60;65.20;;;;;;5001053;28;20443;-66
2022/03/11 12:08:07;;;;;;;23.27;15.68;;;11.60;66.00;;;;;;4969391;28;20050;-66
2022/03/11 12:10:33;;;;;;;23.67;15.85;;;11.60;65.90;;;;;;4979849;28;20051;-66
2022/03/11 12:13:01;;;;;;;24.00;14.82;;;11.70;64.10;;;;;;4994136;28;20050;-65
2022/03/11 12:15:31;;;;;;;25.10;16.05;;;11.80;65.90;;;;;;5000003;28;20070;-64
2022/03/11 12:18:03;;;;;;;21.08;15.45;;;12.00;62.90;;;;;;4990426;28;20128;-65
2022/03/11 12:20:32;;;;;;;23.05;15.35;;;12.00;62.20;;;;;;5000791;28;20088;-65
2022/03/11 12:23:07;;;;;;;24.50;17.13;;;12.10;61.00;;;;;;5007299;28;20034;-65
2022/03/11 12:25:41;;;;;;;21.95;15.13;;;12.10;62.70;;;;;;5016705;28;20145;-64
2022/03/11 12:28:12;;;;;;;22.17;15.25;;;12.40;61.20;;;;;;4966923;28;20054;-65
2022/03/11 12:30:47;;;;;;;21.90;14.25;;;12.50;60.00;;;;;;4990887;28;20078;-65
2022/03/11 12:33:20;;;;;;;20.98;15.23;;;12.60;59.20;;;;;;4999245;28;20046;-65
2022/03/11 12:35:48;;;;;;;19.63;13.70;;;12.80;59.20;;;;;;5017209;28;20588;-65
2022/03/11 12:38:16;;;;;;;23.85;16.23;;;13.00;57.90;;;;;;5009854;28;20090;-65
2022/03/11 12:40:44;;;;;;;19.98;14.55;;;13.20;57.90;;;;;;4989612;28;20050;-64